createdAt,value
2023-05-24T00:02:25.389Z,28.60
2023-05-24T00:05:01.775Z,28.60
2023-05-24T00:10:31.908Z,28.60
2023-05-24T00:13:06.991Z,28.50
2023-05-24T00:15:41.446Z,28.50
2023-05-24T00:21:04.651Z,28.60
2023-05-24T00:23:35.856Z,28.60
2023-05-24T00:26:08.160Z,28.60
2023-05-24T00:28:39.350Z,28.70
2023-05-24T00:31:10.537Z,28.80
2023-05-24T00:36:38.870Z,28.90
2023-05-24T00:39:14.646Z,28.90
2023-05-24T00:41:51.034Z,29.00
2023-05-24T00:44:44.256Z,29.00
2023-05-24T00:50:00.896Z,29.10
2023-05-24T00:52:33.290Z,29.10
2023-05-24T00:55:10.472Z,29.10
2023-05-24T00:57:46.215Z,29.20
2023-05-24T01:00:21.734Z,29.20
2023-05-24T01:02:53.559Z,29.20
2023-05-24T01:05:31.173Z,29.20
2023-05-24T01:14:34.201Z,29.20
2023-05-24T01:17:11.139Z,29.20
2023-05-24T01:20:05.227Z,29.10
2023-05-24T01:23:01.982Z,29.10
2023-05-24T01:25:56.340Z,29.20
2023-05-24T01:28:28.330Z,29.20
2023-05-24T01:30:59.996Z,29.30
2023-05-24T01:33:52.782Z,29.30
2023-05-24T01:36:25.935Z,29.30
2023-05-24T01:39:04.001Z,29.40
2023-05-24T01:41:49.547Z,29.50
2023-05-24T01:44:26.698Z,29.50
2023-05-24T01:47:08.936Z,29.70
2023-05-24T01:49:44.456Z,29.70
2023-05-24T01:52:30.655Z,29.80
2023-05-24T01:55:03.412Z,29.80
2023-05-24T01:57:37.479Z,29.80
2023-05-24T02:03:10.667Z,29.90
2023-05-24T02:05:46.963Z,29.90
2023-05-24T02:08:18.649Z,30.00
2023-05-24T02:10:50.110Z,30.10
2023-05-24T02:13:21.527Z,30.20
2023-05-24T02:15:54.640Z,30.20
2023-05-24T02:18:25.795Z,30.20
2023-05-24T02:23:57.945Z,30.30
2023-05-24T02:26:32.543Z,30.50
2023-05-24T02:29:08.171Z,30.60
2023-05-24T02:31:48.627Z,30.70
2023-05-24T02:34:19.449Z,30.90
2023-05-24T02:36:50.568Z,31.00
2023-05-24T02:39:22.053Z,31.10
2023-05-24T02:41:53.336Z,31.30
2023-05-24T02:44:24.594Z,31.50
2023-05-24T02:47:05.801Z,31.50
2023-05-24T02:49:40.450Z,31.60
2023-05-24T02:52:13.163Z,31.60
2023-05-24T02:54:44.384Z,31.80
2023-05-24T02:57:15.499Z,32.00
2023-05-24T02:59:46.630Z,32.10
2023-05-24T03:02:19.150Z,32.20
2023-05-24T03:04:50.765Z,32.20
2023-05-24T03:07:21.911Z,32.10
2023-05-24T03:09:55.773Z,32.20
2023-05-24T03:12:27.090Z,32.20
2023-05-24T03:14:58.253Z,32.20
2023-05-24T03:17:29.801Z,32.30
2023-05-24T03:20:01.088Z,32.40
2023-05-24T03:22:32.486Z,32.50
2023-05-24T03:25:03.691Z,32.60
2023-05-24T03:27:35.471Z,32.70
2023-05-24T03:30:11.531Z,32.80
2023-05-24T03:32:43.322Z,32.90
2023-05-24T03:35:14.559Z,32.90
2023-05-24T03:37:52.046Z,33.00
2023-05-24T03:40:24.296Z,33.20
2023-05-24T03:43:00.543Z,33.20
2023-05-24T03:45:40.311Z,33.30
2023-05-24T03:48:11.597Z,33.40
2023-05-24T03:50:42.949Z,33.40
2023-05-24T03:53:14.371Z,33.50
2023-05-24T03:55:45.558Z,33.50
2023-05-24T03:58:21.140Z,33.60
2023-05-24T04:00:53.153Z,33.70
2023-05-24T04:03:24.458Z,33.80
2023-05-24T04:05:57.618Z,33.80
2023-05-24T04:08:30.152Z,33.80
2023-05-24T04:11:02.300Z,34.00
2023-05-24T04:13:33.716Z,34.00
2023-05-24T04:16:05.557Z,34.00
2023-05-24T04:18:37.483Z,34.10
2023-05-24T04:24:13.664Z,34.20
2023-05-24T04:26:40.531Z,34.30
2023-05-24T04:29:11.974Z,34.30
2023-05-24T04:31:48.332Z,34.30
2023-05-24T04:37:09.636Z,34.40
2023-05-24T04:39:42.170Z,34.40
2023-05-24T04:42:17.361Z,34.30
2023-05-24T04:44:48.655Z,34.30
2023-05-24T04:47:20.266Z,34.30
2023-05-24T04:56:28.287Z,34.20
2023-05-24T04:58:59.526Z,34.10
2023-05-24T05:04:19.809Z,34.20
2023-05-24T05:25:51.763Z,35.20
2023-05-24T05:28:23.081Z,35.20
2023-05-24T05:30:58.440Z,35.30
2023-05-24T05:33:29.543Z,35.30
2023-05-24T05:36:02.092Z,35.30
2023-05-24T05:38:33.520Z,35.40
2023-05-24T05:43:53.750Z,35.50
2023-05-24T05:46:25.926Z,35.60
2023-05-24T05:48:57.259Z,35.60
2023-05-24T05:51:35.458Z,35.60
2023-05-24T05:54:11.006Z,35.60
2023-05-24T05:56:43.528Z,35.50
2023-05-24T05:59:15.231Z,35.50
2023-05-24T06:01:48.334Z,35.50
2023-05-24T06:04:21.169Z,35.50
2023-05-24T06:06:53.377Z,35.50
2023-05-24T06:09:24.481Z,35.50
2023-05-24T06:11:55.627Z,35.50
2023-05-24T06:14:32.989Z,35.50
2023-05-24T06:17:04.092Z,35.40
2023-05-24T06:19:35.191Z,35.30
2023-05-24T06:22:06.654Z,35.30
2023-05-24T06:24:38.161Z,35.20
2023-05-24T06:33:34.552Z,35.00
2023-05-24T06:36:06.052Z,34.80
2023-05-24T06:38:37.844Z,34.70
2023-05-24T06:41:17.628Z,34.70
2023-05-24T06:43:48.505Z,34.70
2023-05-24T06:46:19.741Z,34.70
2023-05-24T06:48:51.080Z,34.80
2023-05-24T06:51:24.215Z,34.80
2023-05-24T06:53:54.807Z,34.90
2023-05-24T06:56:30.089Z,35.10
2023-05-24T06:59:05.253Z,35.20
2023-05-24T07:01:43.224Z,35.30
2023-05-24T07:04:18.059Z,35.30
2023-05-24T07:06:49.862Z,35.30
2023-05-24T07:09:22.772Z,35.20
2023-05-24T07:11:55.066Z,35.30
2023-05-24T07:14:27.192Z,35.30
2023-05-24T07:17:02.282Z,35.40
2023-05-24T07:19:34.952Z,35.50
2023-05-24T07:24:56.674Z,35.50
2023-05-24T07:27:27.932Z,35.40
2023-05-24T07:30:31.815Z,35.50
2023-05-24T07:32:43.319Z,35.40
2023-05-24T07:35:15.426Z,35.40
2023-05-24T07:37:46.640Z,35.50
2023-05-24T07:43:30.112Z,35.50
2023-05-24T07:46:01.826Z,35.60
2023-05-24T07:48:34.250Z,35.60
2023-05-24T07:51:05.403Z,35.60
2023-05-24T07:53:38.562Z,35.60
2023-05-24T07:56:18.021Z,35.40
2023-05-24T08:01:43.755Z,35.10
2023-05-24T08:04:23.118Z,34.80
2023-05-24T08:07:15.398Z,34.40
2023-05-24T08:09:52.736Z,34.10
2023-05-24T08:12:35.400Z,33.90
2023-05-24T08:18:00.619Z,32.90
2023-05-24T08:33:24.223Z,32.40
2023-05-24T08:38:51.224Z,32.50
2023-05-24T08:41:19.031Z,32.50
2023-05-24T08:42:10.869Z,32.50
2023-05-24T08:47:00.531Z,32.40
2023-05-24T08:49:49.133Z,32.50
2023-05-24T08:52:26.891Z,32.50
2023-05-24T08:55:06.528Z,32.60
2023-05-24T08:57:47.152Z,32.60
2023-05-24T09:00:20.616Z,32.80
2023-05-24T09:02:53.237Z,32.80
2023-05-24T09:05:24.542Z,32.90
2023-05-24T09:07:57.103Z,33.00
2023-05-24T09:10:45.003Z,33.10
2023-05-24T09:13:18.190Z,33.10
2023-05-24T09:15:59.164Z,33.20
2023-05-24T09:18:35.811Z,33.20
2023-05-24T09:21:07.129Z,33.30
2023-05-24T09:23:38.893Z,33.30
2023-05-24T09:26:16.169Z,33.30
2023-05-24T09:28:52.336Z,33.30
2023-05-24T09:31:27.787Z,33.30
2023-05-24T09:33:58.450Z,33.30
2023-05-24T09:36:37.197Z,33.30
2023-05-24T09:39:11.228Z,33.30
2023-05-24T09:41:44.242Z,33.30
2023-05-24T09:44:22.482Z,33.20
2023-05-24T09:46:57.441Z,33.10
2023-05-24T09:49:30.059Z,33.10
2023-05-24T09:52:34.029Z,33.10
2023-05-24T09:55:17.191Z,33.10
2023-05-24T09:57:54.488Z,33.10
2023-05-24T10:00:26.475Z,33.10
2023-05-24T10:03:13.719Z,33.10
2023-05-24T10:05:47.947Z,33.10
2023-05-24T10:08:23.616Z,33.10
2023-05-24T10:11:00.134Z,33.00
2023-05-24T10:16:09.472Z,32.90
2023-05-24T10:16:25.919Z,33.00
2023-05-24T10:18:49.561Z,32.80
2023-05-24T10:21:22.693Z,32.80
2023-05-24T10:23:56.369Z,32.80
2023-05-24T10:26:28.260Z,32.80
2023-05-24T10:29:07.307Z,32.80
2023-05-24T10:31:43.583Z,32.80
2023-05-24T10:34:15.256Z,32.70
2023-05-24T10:36:48.312Z,32.60
2023-05-24T10:39:20.681Z,32.60
2023-05-24T10:41:52.912Z,32.50
2023-05-24T10:44:24.329Z,32.50
2023-05-24T10:47:15.048Z,32.40
2023-05-24T10:49:54.151Z,32.40
2023-05-24T10:52:30.322Z,32.40
2023-05-24T10:55:10.829Z,32.40
2023-05-24T10:57:42.587Z,32.40
2023-05-24T11:03:07.201Z,32.40
2023-05-24T11:05:40.352Z,32.40
2023-05-24T11:08:11.818Z,32.40
2023-05-24T11:10:46.214Z,32.30
2023-05-24T11:13:17.406Z,32.30
2023-05-24T11:15:57.257Z,32.30
2023-05-24T11:18:28.540Z,32.30
2023-05-24T11:21:02.564Z,32.30
2023-05-24T11:23:36.623Z,32.30
2023-05-24T11:26:07.027Z,32.30
2023-05-24T11:28:40.426Z,32.20
2023-05-24T11:31:14.794Z,32.20
2023-05-24T11:33:46.154Z,32.20
2023-05-24T11:36:19.438Z,32.20
2023-05-24T11:38:51.256Z,32.20
2023-05-24T11:41:23.154Z,32.20
2023-05-24T11:43:54.290Z,32.20
2023-05-24T11:46:29.369Z,32.20
2023-05-24T11:49:09.432Z,32.20
2023-05-24T11:51:54.310Z,32.20
2023-05-24T11:54:26.137Z,32.20
2023-05-24T11:56:58.050Z,32.20
2023-05-24T11:59:49.008Z,32.20
2023-05-24T12:02:37.162Z,32.20
2023-05-24T12:05:13.649Z,32.20
2023-05-24T12:07:45.117Z,32.20
2023-05-24T12:10:43.369Z,32.20
2023-05-24T12:22:38.720Z,32.10
2023-05-24T12:25:11.298Z,32.10
2023-05-24T12:27:46.287Z,32.10
2023-05-24T12:30:27.538Z,32.10
2023-05-24T12:32:59.303Z,32.10
2023-05-24T12:35:33.667Z,32.00
2023-05-24T12:38:05.025Z,32.10
2023-05-24T12:40:36.675Z,32.10
2023-05-24T12:43:08.657Z,32.00
2023-05-24T12:45:39.924Z,32.00
2023-05-24T12:48:11.071Z,32.00
2023-05-24T12:50:42.684Z,32.00
2023-05-24T12:53:14.115Z,32.00
2023-05-24T12:58:38.825Z,32.00
2023-05-24T13:01:14.722Z,31.90
2023-05-24T13:03:46.074Z,31.90
2023-05-24T13:06:17.217Z,31.90
2023-05-24T13:08:50.104Z,31.90
2023-05-24T13:11:21.562Z,31.90
2023-05-24T13:13:52.923Z,31.80
2023-05-24T13:16:24.146Z,31.80
2023-05-24T13:19:16.590Z,31.80
2023-05-24T13:22:21.258Z,31.90
2023-05-24T13:25:15.036Z,31.90
2023-05-24T13:27:46.694Z,31.90
2023-05-24T13:30:18.685Z,31.80
2023-05-24T13:32:50.155Z,31.80
2023-05-24T13:35:21.619Z,31.80
2023-05-24T13:37:59.362Z,31.80
2023-05-24T13:40:30.093Z,31.70
2023-05-24T13:43:02.233Z,31.70
2023-05-24T13:45:37.504Z,31.70
2023-05-24T13:48:08.974Z,31.60
2023-05-24T13:50:41.773Z,31.60
2023-05-24T13:53:13.575Z,31.50
2023-05-24T13:55:58.057Z,31.40
2023-05-24T13:58:29.087Z,31.40
2023-05-24T14:01:00.430Z,31.40
2023-05-24T14:03:31.920Z,31.40
2023-05-24T14:06:03.252Z,31.30
2023-05-24T14:08:34.513Z,31.20
2023-05-24T14:16:17.121Z,31.20
2023-05-24T14:18:49.760Z,31.10
2023-05-24T14:21:23.734Z,31.10
2023-05-24T14:24:00.147Z,31.10
2023-05-24T14:26:40.687Z,31.10
2023-05-24T14:29:45.565Z,31.20
2023-05-24T14:32:14.556Z,31.20
2023-05-24T14:34:46.189Z,31.20
2023-05-24T14:37:19.859Z,31.20
2023-05-24T14:39:51.194Z,31.20
2023-05-24T14:42:39.854Z,31.20
2023-05-24T14:45:39.133Z,31.20
2023-05-24T14:48:42.460Z,31.20
2023-05-24T14:51:16.657Z,31.10
2023-05-24T14:53:48.576Z,31.10
2023-05-24T14:56:19.338Z,31.10
2023-05-24T14:58:51.583Z,31.10
2023-05-24T15:01:38.105Z,31.00
2023-05-24T15:04:11.265Z,31.00
2023-05-24T15:06:42.860Z,31.00
2023-05-24T15:09:23.954Z,31.00
2023-05-24T15:11:55.399Z,31.00
2023-05-24T15:14:26.633Z,31.00
2023-05-24T15:16:58.123Z,30.90
2023-05-24T15:19:32.006Z,30.90
2023-05-24T15:22:03.252Z,30.80
2023-05-24T15:24:34.832Z,30.80
2023-05-24T15:27:06.685Z,30.80
2023-05-24T15:32:55.894Z,30.60
2023-05-24T15:35:31.899Z,30.60
2023-05-24T15:41:13.607Z,30.50
2023-05-24T15:43:44.837Z,30.50
2023-05-24T15:46:16.469Z,30.50
2023-05-24T15:52:13.592Z,30.40
2023-05-24T16:01:38.889Z,30.30
2023-05-24T16:04:14.569Z,30.30
2023-05-24T16:06:46.232Z,30.20
2023-05-24T16:09:17.379Z,30.20
2023-05-24T16:11:53.159Z,30.10
2023-05-24T16:14:24.377Z,30.10
2023-05-24T16:16:57.381Z,30.10
2023-05-24T16:19:28.308Z,30.00
2023-05-24T16:21:59.401Z,30.00
2023-05-24T16:24:36.098Z,29.90
2023-05-24T16:27:08.217Z,29.90
2023-05-24T16:29:39.617Z,29.90
2023-05-24T16:32:10.948Z,29.90
2023-05-24T16:34:56.095Z,29.80
2023-05-24T16:37:15.525Z,29.80
2023-05-24T16:39:46.672Z,29.70
2023-05-24T16:42:17.965Z,29.70
2023-05-24T16:44:49.266Z,29.60
2023-05-24T16:47:20.594Z,29.60
2023-05-24T16:49:51.885Z,29.60
2023-05-24T16:52:25.466Z,29.50
2023-05-24T16:54:56.628Z,29.40
2023-05-24T16:57:52.771Z,29.40
2023-05-24T17:00:24.292Z,29.30
2023-05-24T17:02:55.834Z,29.20
2023-05-24T17:05:27.250Z,29.20
2023-05-24T17:07:58.683Z,29.20
2023-05-24T17:10:29.907Z,29.20
2023-05-24T17:13:02.354Z,29.20
2023-05-24T17:15:33.751Z,29.10
2023-05-24T17:18:05.251Z,29.10
2023-05-24T17:20:36.838Z,29.10
2023-05-24T17:23:08.096Z,29.10
2023-05-24T17:25:39.383Z,29.10
2023-05-24T17:28:13.658Z,29.10
2023-05-24T17:30:45.009Z,29.10
2023-05-24T17:33:16.684Z,29.00
2023-05-24T17:38:41.245Z,28.90
2023-05-24T17:41:24.815Z,28.90
2023-05-24T17:44:04.965Z,28.90
2023-05-24T17:46:30.495Z,29.00
2023-05-24T17:49:02.238Z,29.00
2023-05-24T17:51:35.196Z,29.00
2023-05-24T17:54:06.362Z,29.00
2023-05-24T17:57:06.939Z,29.10
2023-05-24T17:59:37.846Z,29.10
2023-05-24T18:02:09.885Z,29.10
2023-05-24T18:04:41.178Z,29.20
2023-05-24T18:07:14.874Z,29.10
2023-05-24T18:09:52.546Z,29.10
2023-05-24T18:12:21.740Z,29.10
2023-05-24T18:14:56.332Z,29.20
2023-05-24T18:17:28.782Z,29.20
2023-05-24T18:20:02.012Z,29.20
2023-05-24T18:22:41.986Z,29.20
2023-05-24T18:25:16.006Z,29.10
2023-05-24T18:27:50.048Z,29.10
2023-05-24T18:30:24.053Z,29.00
2023-05-24T18:33:07.194Z,29.00
2023-05-24T18:35:31.690Z,28.90
2023-05-24T18:38:05.165Z,28.90
2023-05-24T18:40:40.172Z,28.80
2023-05-24T18:43:18.580Z,28.80
2023-05-24T18:45:52.081Z,28.80
2023-05-24T18:48:22.414Z,28.80
2023-05-24T18:50:59.571Z,28.80
2023-05-24T18:53:31.944Z,28.80
2023-05-24T18:56:03.175Z,28.80
2023-05-24T18:58:34.745Z,28.70
2023-05-24T19:01:14.673Z,28.70
2023-05-24T19:03:46.656Z,28.70
2023-05-24T19:06:21.496Z,28.70
2023-05-24T19:08:52.743Z,28.70
2023-05-24T19:11:24.371Z,28.70
2023-05-24T19:13:56.837Z,28.60
2023-05-24T19:16:28.239Z,28.60
2023-05-24T19:18:59.714Z,28.50
2023-05-24T19:21:31.570Z,28.50
2023-05-24T19:24:02.879Z,28.50
2023-05-24T19:26:35.717Z,28.60
2023-05-24T19:29:10.177Z,28.60
2023-05-24T19:31:41.776Z,28.60
2023-05-24T19:34:24.500Z,28.60
2023-05-24T19:36:56.135Z,28.60
2023-05-24T19:42:52.081Z,28.60
2023-05-24T19:45:21.848Z,28.70
2023-05-24T19:47:53.119Z,28.70
2023-05-24T19:50:31.581Z,28.60
2023-05-24T19:53:07.646Z,28.60
2023-05-24T19:55:39.573Z,28.60
2023-05-24T19:58:13.201Z,28.50
2023-05-24T20:00:46.364Z,28.50
2023-05-24T20:03:18.684Z,28.50
2023-05-24T20:05:51.297Z,28.50
2023-05-24T20:08:22.777Z,28.50
2023-05-24T20:10:54.028Z,28.50
2023-05-24T20:13:25.487Z,28.50
2023-05-24T20:15:58.067Z,28.40
2023-05-24T20:18:29.322Z,28.50
2023-05-24T20:21:04.983Z,28.40
2023-05-24T20:23:39.343Z,28.30
2023-05-24T20:26:10.503Z,28.30
2023-05-24T20:28:44.580Z,28.30
2023-05-24T20:31:16.123Z,28.20
2023-05-24T20:34:12.578Z,28.30
2023-05-24T20:36:44.123Z,28.30
2023-05-24T20:39:17.196Z,28.30
2023-05-24T20:41:51.620Z,28.30
2023-05-24T20:44:28.095Z,28.30
2023-05-24T20:47:01.835Z,28.30
2023-05-24T20:49:35.547Z,28.30
2023-05-24T20:52:13.009Z,28.30
2023-05-24T20:54:49.513Z,28.30
2023-05-24T20:57:21.961Z,28.20
2023-05-24T20:59:57.625Z,28.20
2023-05-24T21:02:59.297Z,28.20
2023-05-24T21:05:06.642Z,28.20
2023-05-24T21:07:39.185Z,28.10
2023-05-24T21:10:11.459Z,28.10
2023-05-24T21:12:45.226Z,28.10
2023-05-24T21:15:15.342Z,28.10
2023-05-24T21:17:46.534Z,28.10
2023-05-24T21:20:18.002Z,28.00
2023-05-24T21:22:51.849Z,28.00
2023-05-24T21:25:23.948Z,28.00
2023-05-24T21:27:55.367Z,28.00
2023-05-24T21:30:29.754Z,28.00
2023-05-24T21:33:01.033Z,28.00
2023-05-24T21:35:38.028Z,27.90
2023-05-24T21:38:08.051Z,27.90
2023-05-24T21:40:39.276Z,27.90
2023-05-24T21:43:11.862Z,27.90
2023-05-24T21:45:43.564Z,27.90
2023-05-24T21:48:15.269Z,27.90
2023-05-24T21:50:46.712Z,27.90
2023-05-24T21:53:17.962Z,27.90
2023-05-24T21:55:49.079Z,27.90
2023-05-24T21:58:20.306Z,27.90
2023-05-24T22:00:52.536Z,27.90
2023-05-24T22:03:23.941Z,27.90
2023-05-24T22:05:55.333Z,27.90
2023-05-24T22:08:26.659Z,27.80
2023-05-24T22:10:58.115Z,27.90
2023-05-24T22:13:36.029Z,27.90
2023-05-24T22:16:08.004Z,27.90
2023-05-24T22:18:39.291Z,27.90
2023-05-24T22:21:10.725Z,27.90
2023-05-24T22:23:45.410Z,27.90
2023-05-24T22:26:18.034Z,27.90
2023-05-24T22:29:00.992Z,27.90
2023-05-24T22:34:31.459Z,27.90
2023-05-24T22:37:02.953Z,27.90
2023-05-24T22:39:34.190Z,27.90
2023-05-24T22:42:05.523Z,27.80
2023-05-24T22:44:45.652Z,27.80
2023-05-24T22:47:23.453Z,27.80
2023-05-24T22:49:57.785Z,27.80
2023-05-24T22:52:29.147Z,27.80
2023-05-24T22:55:00.610Z,27.80
2023-05-24T22:57:32.077Z,27.80
2023-05-24T23:00:05.062Z,27.80
2023-05-24T23:02:37.983Z,27.80
2023-05-24T23:05:12.561Z,27.80
2023-05-24T23:07:43.771Z,27.80
2023-05-24T23:10:18.884Z,27.80
2023-05-24T23:12:50.299Z,27.80
2023-05-24T23:15:29.397Z,27.80
2023-05-24T23:17:54.727Z,27.80
2023-05-24T23:20:41.296Z,27.70
2023-05-24T23:25:46.428Z,27.70
2023-05-24T23:28:17.840Z,27.80
2023-05-24T23:30:49.263Z,27.80
2023-05-24T23:33:20.501Z,27.80
2023-05-24T23:35:51.868Z,27.80
2023-05-24T23:38:23.221Z,27.80
2023-05-24T23:40:54.370Z,27.80
2023-05-24T23:43:25.551Z,27.80
2023-05-24T23:45:56.937Z,27.80
2023-05-24T23:48:28.294Z,27.80
2023-05-24T23:50:59.959Z,27.80
2023-05-24T23:53:31.224Z,27.90
2023-05-24T23:56:02.562Z,27.90
2023-05-24T23:58:34.935Z,27.90
